Time;durP1;ratioP1;P1;durP2;ratioP2;P2;SDS_P1;SDS_P2;PMS_P1;PMS_P2;Temp;Humidity;BMP_temperature;BMP_pressure;BME280_temperature;BME280_humidity;BME280_pressure;Samples;Min_cycle;Max_cycle;Signal;HPM_P1;HPM_P2
2021/06/29 00:00:06;;;;;;;0.30;0.30;;;21.10;99.90;;;;;;5068774;28;20214;-82
2021/06/29 00:02:31;;;;;;;0.80;0.80;;;21.00;99.90;;;;;;5061007;28;20191;-82
2021/06/29 00:04:57;;;;;;;0.67;0.57;;;21.10;99.90;;;;;;5065917;28;20222;-82
2021/06/29 00:07:23;;;;;;;0.50;0.50;;;21.10;99.90;;;;;;5071729;28;20173;-82
2021/06/29 00:09:48;;;;;;;0.27;0.27;;;21.10;99.90;;;;;;5070525;28;20188;-82
2021/06/29 00:12:14;;;;;;;0.30;0.30;;;21.10;99.90;;;;;;5072026;28;20181;-82
2021/06/29 00:14:41;;;;;;;0.57;0.47;;;21.10;99.90;;;;;;5075687;28;20282;-82
2021/06/29 00:17:10;;;;;;;0.30;0.30;;;21.00;99.90;;;;;;5081024;28;20177;-82
2021/06/29 00:19:36;;;;;;;0.30;0.30;;;21.10;99.90;;;;;;5070477;28;20260;-82
2021/06/29 00:22:02;;;;;;;0.40;0.40;;;21.00;99.90;;;;;;5052861;28;20268;-82
2021/06/29 00:24:27;;;;;;;0.77;0.53;;;20.80;99.90;;;;;;5053666;28;20664;-82
2021/06/29 00:26:53;;;;;;;0.53;0.50;;;20.60;99.90;;;;;;5068263;28;20213;-82
2021/06/29 00:29:19;;;;;;;0.70;0.70;;;20.30;99.90;;;;;;5060938;28;20222;-82
2021/06/29 00:31:44;;;;;;;0.90;0.90;;;20.20;99.90;;;;;;5076299;28;20217;-82
2021/06/29 00:34:10;;;;;;;0.50;0.50;;;20.20;99.90;;;;;;5065135;28;20200;-82
2021/06/29 00:36:36;;;;;;;0.63;0.40;;;20.30;99.90;;;;;;5075281;28;20184;-81
2021/06/29 00:39:03;;;;;;;0.30;0.30;;;20.50;99.90;;;;;;5070226;28;20188;-80
2021/06/29 00:41:29;;;;;;;0.77;0.50;;;20.60;99.90;;;;;;5070300;28;20185;-82
2021/06/29 00:43:55;;;;;;;0.70;0.60;;;20.70;99.90;;;;;;5050744;28;20262;-82
2021/06/29 00:46:20;;;;;;;0.30;0.30;;;20.80;99.90;;;;;;5062556;28;20223;-82
2021/06/29 00:48:47;;;;;;;0.50;0.50;;;20.90;99.90;;;;;;5069349;28;20618;-82
2021/06/29 00:51:14;;;;;;;0.37;0.37;;;20.80;99.90;;;;;;5054438;28;20189;-82
2021/06/29 00:53:41;;;;;;;0.40;0.40;;;20.70;99.90;;;;;;5050369;28;20235;-82
2021/06/29 00:56:13;;;;;;;1.03;0.60;;;20.70;99.90;;;;;;5062577;28;20193;-82
2021/06/29 00:58:44;;;;;;;0.87;0.83;;;20.80;99.90;;;;;;5052248;28;20191;-83
2021/06/29 01:01:10;;;;;;;0.40;0.40;;;20.60;99.90;;;;;;5069742;28;20724;-83
2021/06/29 01:03:40;;;;;;;0.40;0.40;;;20.50;99.90;;;;;;5071400;28;20205;-82
2021/06/29 01:06:07;;;;;;;0.47;0.47;;;20.60;99.90;;;;;;5071000;28;20193;-82
2021/06/29 01:08:33;;;;;;;0.67;0.67;;;20.50;99.90;;;;;;5070851;28;20180;-82
2021/06/29 01:10:59;;;;;;;0.83;0.70;;;20.20;99.90;;;;;;5059437;28;20277;-82
2021/06/29 01:13:45;;;;;;;1.30;1.20;;;20.40;99.90;;;;;;5057581;28;20200;-82
2021/06/29 01:16:12;;;;;;;1.20;0.60;;;20.40;99.90;;;;;;5056341;28;20200;-82
2021/06/29 01:18:41;;;;;;;0.70;0.70;;;20.00;99.90;;;;;;5057232;28;20177;-82
2021/06/29 01:21:12;;;;;;;0.30;0.30;;;19.70;99.90;;;;;;5063659;28;20287;-82
2021/06/29 01:23:38;;;;;;;0.53;0.53;;;19.60;99.90;;;;;;5062499;28;20560;-82
2021/06/29 01:26:11;;;;;;;0.40;0.40;;;19.50;99.90;;;;;;5079567;28;20929;-82
2021/06/29 01:28:53;;;;;;;0.40;0.40;;;19.70;99.90;;;;;;5074105;28;20184;-82
2021/06/29 01:31:20;;;;;;;0.40;0.40;;;19.70;99.90;;;;;;5060788;28;20672;-82
2021/06/29 01:33:46;;;;;;;0.30;0.30;;;19.90;99.90;;;;;;5063988;28;20687;-82
2021/06/29 01:36:17;;;;;;;0.50;0.50;;;20.00;99.90;;;;;;5073271;28;20185;-82
2021/06/29 01:38:43;;;;;;;0.53;0.53;;;20.10;99.90;;;;;;5076495;28;20195;-82
2021/06/29 01:41:11;;;;;;;0.77;0.50;;;20.20;99.90;;;;;;5061331;28;20191;-81
2021/06/29 01:43:44;;;;;;;0.30;0.30;;;20.20;99.90;;;;;;5061051;28;20204;-81
2021/06/29 01:46:10;;;;;;;0.60;0.60;;;20.30;99.90;;;;;;5073449;28;20213;-83
2021/06/29 01:48:36;;;;;;;0.30;0.30;;;20.30;99.90;;;;;;5074199;28;20189;-82
2021/06/29 01:51:01;;;;;;;0.27;0.27;;;20.30;99.90;;;;;;5056686;28;20181;-82
2021/06/29 01:53:27;;;;;;;0.33;0.33;;;20.40;99.90;;;;;;5072991;28;20692;-82
2021/06/29 01:55:53;;;;;;;0.27;0.23;;;20.50;99.90;;;;;;5082655;28;20180;-82
2021/06/29 01:58:28;;;;;;;0.20;0.20;;;20.50;99.90;;;;;;5068072;28;20184;-83
2021/06/29 02:00:55;;;;;;;0.33;0.33;;;20.40;99.90;;;;;;5071084;28;20177;-82
2021/06/29 02:03:21;;;;;;;0.93;0.93;;;19.90;99.90;;;;;;5058547;28;20205;-82
2021/06/29 02:05:47;;;;;;;0.30;0.30;;;19.60;99.90;;;;;;5056532;28;20288;-82
2021/06/29 02:08:12;;;;;;;0.40;0.40;;;19.60;99.90;;;;;;5072404;28;20264;-82
2021/06/29 02:10:38;;;;;;;0.73;0.73;;;19.70;99.90;;;;;;5073903;28;20200;-82
2021/06/29 02:13:05;;;;;;;1.43;1.33;;;19.50;99.90;;;;;;5062495;28;20237;-82
2021/06/29 02:15:30;;;;;;;0.83;0.83;;;19.10;99.90;;;;;;5071783;28;20189;-82
2021/06/29 02:17:56;;;;;;;1.17;0.67;;;18.80;99.90;;;;;;5095352;28;20243;-82
2021/06/29 02:20:22;;;;;;;0.60;0.60;;;18.80;99.90;;;;;;5071538;28;20192;-82
2021/06/29 02:22:49;;;;;;;0.60;0.60;;;19.00;99.90;;;;;;5079544;28;20192;-81
2021/06/29 02:25:14;;;;;;;0.87;0.23;;;19.30;99.90;;;;;;5061707;28;20197;-82
2021/06/29 02:27:40;;;;;;;0.20;0.20;;;19.40;99.90;;;;;;5057400;28;20561;-82
2021/06/29 02:30:07;;;;;;;0.27;0.27;;;19.50;99.90;;;;;;5072228;28;20569;-82
2021/06/29 02:32:33;;;;;;;0.30;0.30;;;19.70;99.90;;;;;;5074789;28;20201;-82
2021/06/29 02:34:58;;;;;;;0.30;0.30;;;19.80;99.90;;;;;;5072941;28;20227;-82
2021/06/29 02:37:25;;;;;;;0.20;0.20;;;19.90;99.90;;;;;;5071293;28;20226;-82
2021/06/29 02:39:52;;;;;;;0.50;0.50;;;19.90;99.90;;;;;;5056064;28;20181;-82
2021/06/29 02:42:18;;;;;;;1.63;0.70;;;19.50;99.90;;;;;;5062957;28;20188;-82
2021/06/29 02:44:45;;;;;;;0.47;0.47;;;19.20;99.90;;;;;;5075130;28;20209;-81
2021/06/29 02:47:11;;;;;;;0.57;0.57;;;19.00;99.90;;;;;;5055027;28;20282;-82
2021/06/29 02:49:37;;;;;;;0.27;0.27;;;18.80;99.90;;;;;;5055917;28;20229;-82
2021/06/29 02:52:03;;;;;;;0.63;0.40;;;18.90;99.90;;;;;;5055010;28;20239;-82
2021/06/29 02:54:29;;;;;;;0.30;0.30;;;19.10;99.90;;;;;;5063899;28;20272;-82
2021/06/29 02:56:55;;;;;;;0.20;0.20;;;19.10;99.90;;;;;;5079302;28;20195;-82
2021/06/29 02:59:21;;;;;;;0.17;0.17;;;19.30;99.90;;;;;;5060543;28;20186;-82
2021/06/29 03:01:47;;;;;;;0.47;0.47;;;19.20;99.90;;;;;;5078721;28;20192;-82
2021/06/29 03:04:13;;;;;;;0.30;0.30;;;19.30;99.90;;;;;;5061091;28;20205;-81
2021/06/29 03:06:39;;;;;;;0.53;0.53;;;19.30;99.90;;;;;;5069493;28;20311;-81
2021/06/29 03:09:06;;;;;;;0.37;0.37;;;19.20;99.90;;;;;;5054174;28;20184;-82
2021/06/29 03:11:32;;;;;;;0.30;0.30;;;18.90;99.90;;;;;;5055558;28;20185;-82
2021/06/29 03:13:57;;;;;;;0.97;0.40;;;18.90;99.90;;;;;;5074955;28;20680;-82
2021/06/29 03:16:23;;;;;;;0.40;0.40;;;18.90;99.90;;;;;;5073748;28;20193;-82
2021/06/29 03:18:50;;;;;;;1.80;0.57;;;19.00;99.90;;;;;;5073861;28;20184;-82
2021/06/29 03:21:16;;;;;;;0.50;0.50;;;19.10;99.90;;;;;;5058544;28;20189;-82
2021/06/29 03:23:42;;;;;;;0.27;0.27;;;19.40;99.90;;;;;;5071279;28;20209;-82
2021/06/29 03:26:08;;;;;;;0.27;0.27;;;19.50;99.90;;;;;;5055247;28;20296;-84
2021/06/29 03:28:34;;;;;;;0.40;0.40;;;19.60;99.90;;;;;;5057810;28;20216;-84
2021/06/29 03:31:00;;;;;;;2.97;0.40;;;19.50;99.90;;;;;;5057533;28;20661;-83
2021/06/29 03:33:26;;;;;;;0.93;0.87;;;19.40;99.90;;;;;;5051591;28;20204;-83
2021/06/29 03:35:51;;;;;;;0.63;0.63;;;19.20;99.90;;;;;;5062524;28;20564;-82
2021/06/29 03:38:17;;;;;;;0.60;0.60;;;18.90;99.90;;;;;;5040014;28;20228;-83
2021/06/29 03:40:43;;;;;;;1.70;1.07;;;18.60;99.90;;;;;;5056010;28;20207;-83
2021/06/29 03:43:09;;;;;;;0.53;0.50;;;18.40;99.90;;;;;;5070398;28;20225;-81
2021/06/29 03:45:35;;;;;;;0.40;0.40;;;18.70;99.90;;;;;;5051186;28;20219;-83
2021/06/29 03:48:01;;;;;;;0.30;0.30;;;18.80;99.90;;;;;;5052670;28;20233;-83
2021/06/29 03:50:27;;;;;;;0.30;0.30;;;19.10;99.90;;;;;;5053313;28;20732;-83
2021/06/29 03:52:53;;;;;;;0.53;0.53;;;19.10;99.90;;;;;;5071062;28;20189;-83
2021/06/29 03:55:19;;;;;;;0.57;0.57;;;19.10;99.90;;;;;;5046391;28;20184;-83
2021/06/29 03:57:45;;;;;;;0.30;0.30;;;19.20;99.90;;;;;;5063255;28;20372;-83
2021/06/29 04:00:12;;;;;;;0.40;0.40;;;19.50;99.90;;;;;;5053164;28;20711;-83
2021/06/29 04:02:38;;;;;;;0.37;0.37;;;19.70;99.90;;;;;;5050897;28;20186;-82
2021/06/29 04:05:08;;;;;;;0.67;0.30;;;19.90;99.90;;;;;;5068677;28;20215;-83
2021/06/29 04:07:34;;;;;;;0.53;0.53;;;19.90;99.90;;;;;;5068394;28;20188;-82
2021/06/29 04:10:02;;;;;;;0.30;0.30;;;19.70;99.90;;;;;;5070287;28;20181;-82
2021/06/29 04:12:28;;;;;;;0.43;0.43;;;19.30;99.90;;;;;;5061388;28;20178;-82
2021/06/29 04:14:54;;;;;;;0.30;0.30;;;19.20;99.90;;;;;;5052885;28;20207;-83
2021/06/29 04:17:20;;;;;;;0.30;0.30;;;19.20;99.90;;;;;;5052207;28;20185;-83
2021/06/29 04:19:45;;;;;;;0.60;0.60;;;19.10;99.90;;;;;;5069580;28;20238;-83
2021/06/29 04:22:11;;;;;;;0.30;0.30;;;18.90;99.90;;;;;;5050926;28;20220;-83
2021/06/29 04:24:37;;;;;;;1.27;1.17;;;18.80;99.90;;;;;;5071043;28;20275;-82
2021/06/29 04:27:04;;;;;;;1.37;0.70;;;18.70;99.90;;;;;;5070015;28;20209;-82
2021/06/29 04:29:29;;;;;;;0.67;0.67;;;18.70;99.90;;;;;;5044043;28;20185;-82
2021/06/29 04:31:55;;;;;;;0.57;0.50;;;18.70;99.90;;;;;;5052924;28;20185;-82
2021/06/29 04:34:21;;;;;;;0.93;0.60;;;18.90;99.90;;;;;;5057619;28;20577;-83
2021/06/29 04:36:47;;;;;;;0.57;0.57;;;19.10;99.90;;;;;;5070069;28;20649;-83
2021/06/29 04:39:12;;;;;;;0.83;0.50;;;19.40;99.90;;;;;;5068817;28;20177;-83
2021/06/29 04:41:38;;;;;;;0.30;0.30;;;19.10;99.90;;;;;;5067496;28;20192;-83
2021/06/29 04:44:04;;;;;;;2.37;0.47;;;19.30;99.90;;;;;;5068394;28;20210;-82
2021/06/29 04:46:30;;;;;;;0.50;0.50;;;19.40;99.90;;;;;;5066338;28;20218;-85
2021/06/29 04:48:56;;;;;;;0.30;0.30;;;19.60;99.90;;;;;;5072030;28;20655;-84
2021/06/29 04:51:22;;;;;;;0.53;0.53;;;19.90;99.90;;;;;;5079482;28;20185;-85
2021/06/29 04:53:47;;;;;;;0.50;0.40;;;19.80;99.90;;;;;;5055755;28;20588;-82
2021/06/29 04:56:19;;;;;;;1.70;0.40;;;19.50;99.90;;;;;;5070482;28;20559;-82
2021/06/29 04:58:57;;;;;;;0.80;0.80;;;19.50;99.90;;;;;;5056086;28;20189;-82
2021/06/29 05:01:23;;;;;;;0.40;0.40;;;19.30;99.90;;;;;;5074453;28;20273;-82
2021/06/29 05:03:49;;;;;;;0.67;0.40;;;19.20;99.90;;;;;;5055603;28;20350;-81
2021/06/29 05:06:15;;;;;;;0.30;0.30;;;19.20;99.90;;;;;;5074107;28;20228;-81
2021/06/29 05:08:42;;;;;;;1.13;0.70;;;19.40;99.90;;;;;;5053399;28;20222;-81
2021/06/29 05:11:08;;;;;;;0.30;0.30;;;19.50;99.90;;;;;;5074384;28;20183;-82
2021/06/29 05:13:34;;;;;;;0.50;0.50;;;19.70;99.90;;;;;;5055691;28;20260;-83
2021/06/29 05:15:59;;;;;;;1.53;0.37;;;20.00;99.90;;;;;;5071286;28;20189;-84
2021/06/29 05:18:25;;;;;;;0.30;0.30;;;20.20;99.90;;;;;;5073466;28;20247;-83
2021/06/29 05:20:51;;;;;;;0.90;0.63;;;20.30;99.90;;;;;;5073632;28;20181;-83
2021/06/29 05:23:16;;;;;;;0.50;0.50;;;20.40;99.90;;;;;;5069579;28;20680;-83
2021/06/29 05:25:42;;;;;;;4.03;0.93;;;20.50;99.90;;;;;;5056309;28;20291;-80
2021/06/29 05:28:08;;;;;;;0.30;0.20;;;20.70;99.90;;;;;;5071326;28;20216;-81
2021/06/29 05:30:34;;;;;;;0.57;0.57;;;20.80;99.90;;;;;;5053777;28;20588;-81
2021/06/29 05:33:00;;;;;;;0.90;0.87;;;20.80;99.90;;;;;;5065277;28;20193;-81
2021/06/29 05:35:25;;;;;;;0.60;0.60;;;20.90;99.90;;;;;;5050909;28;20742;-83
2021/06/29 05:37:51;;;;;;;0.83;0.70;;;21.00;99.90;;;;;;5068999;28;20181;-83
2021/06/29 05:40:17;;;;;;;0.43;0.43;;;20.90;99.90;;;;;;5054834;28;20701;-82
2021/06/29 05:42:42;;;;;;;2.37;0.50;;;20.60;99.90;;;;;;5054014;28;20181;-82
2021/06/29 05:45:09;;;;;;;0.50;0.50;;;20.70;99.90;;;;;;5075009;28;20330;-81
2021/06/29 05:47:36;;;;;;;0.57;0.57;;;21.00;99.90;;;;;;5073105;28;20185;-82
2021/06/29 05:50:09;;;;;;;0.70;0.63;;;20.80;99.90;;;;;;5070874;28;20212;-80
2021/06/29 05:52:34;;;;;;;1.67;1.53;;;20.70;99.90;;;;;;5071358;28;20192;-82
2021/06/29 05:55:00;;;;;;;0.80;0.80;;;20.40;99.90;;;;;;5054057;28;20358;-82
2021/06/29 05:57:26;;;;;;;0.77;0.77;;;20.10;99.90;;;;;;5072359;28;20196;-82
2021/06/29 05:59:51;;;;;;;0.40;0.40;;;20.30;99.90;;;;;;5070376;28;20181;-82
2021/06/29 06:02:17;;;;;;;0.70;0.67;;;20.70;99.90;;;;;;5073211;28;20185;-82
2021/06/29 06:04:43;;;;;;;0.70;0.70;;;20.40;99.90;;;;;;5054156;28;20248;-82
2021/06/29 06:07:09;;;;;;;0.80;0.80;;;20.10;99.90;;;;;;5071097;28;20216;-82
2021/06/29 06:09:34;;;;;;;0.90;0.90;;;20.50;99.90;;;;;;5071888;28;20231;-82
2021/06/29 06:12:00;;;;;;;0.70;0.70;;;20.20;99.90;;;;;;5055776;28;20196;-81
2021/06/29 06:14:26;;;;;;;0.50;0.50;;;20.30;99.90;;;;;;5041446;28;20283;-81
2021/06/29 06:16:52;;;;;;;1.50;0.57;;;20.60;99.90;;;;;;5041794;28;20236;-82
2021/06/29 06:19:18;;;;;;;0.27;0.27;;;20.70;99.90;;;;;;5058743;28;20189;-82
2021/06/29 06:21:43;;;;;;;0.33;0.27;;;20.90;99.90;;;;;;5052410;28;20188;-82
2021/06/29 06:24:10;;;;;;;0.47;0.47;;;21.00;99.90;;;;;;5072766;28;20211;-81
2021/06/29 06:26:35;;;;;;;0.67;0.67;;;21.40;99.90;;;;;;5072099;28;20212;-81
2021/06/29 06:29:02;;;;;;;0.97;0.83;;;21.30;99.90;;;;;;5068443;28;20200;-81
2021/06/29 06:31:27;;;;;;;0.70;0.70;;;21.00;99.90;;;;;;5069258;28;20181;-81
2021/06/29 06:33:53;;;;;;;0.30;0.30;;;21.20;99.90;;;;;;5071671;28;20989;-82
2021/06/29 06:36:19;;;;;;;0.33;0.33;;;21.60;99.90;;;;;;5070918;28;20185;-82
2021/06/29 06:38:44;;;;;;;0.30;0.30;;;22.00;99.90;;;;;;5068581;28;20230;-82
2021/06/29 06:41:13;;;;;;;0.63;0.63;;;22.30;99.90;;;;;;5072642;28;20626;-81
2021/06/29 06:43:41;;;;;;;0.93;0.60;;;22.50;99.90;;;;;;5070860;28;20205;-82
2021/06/29 06:46:08;;;;;;;0.50;0.50;;;22.70;99.90;;;;;;5069227;28;20681;-82
2021/06/29 06:48:34;;;;;;;1.03;0.60;;;22.90;99.90;;;;;;5052890;28;20173;-82
2021/06/29 06:51:00;;;;;;;0.70;0.70;;;22.70;99.90;;;;;;5050728;28;20689;-81
2021/06/29 06:53:26;;;;;;;1.33;1.00;;;22.30;99.90;;;;;;5053034;28;20291;-81
2021/06/29 06:55:51;;;;;;;0.50;0.50;;;22.20;99.90;;;;;;5060645;28;20212;-82
2021/06/29 06:58:17;;;;;;;0.50;0.50;;;21.70;99.90;;;;;;5073485;28;20180;-82
2021/06/29 07:00:43;;;;;;;3.83;1.17;;;21.90;99.90;;;;;;5052627;28;20185;-81
2021/06/29 07:03:08;;;;;;;0.97;0.60;;;22.30;99.90;;;;;;5052025;28;20205;-80
2021/06/29 07:05:34;;;;;;;1.43;1.33;;;22.50;99.90;;;;;;5081572;28;20220;-81
2021/06/29 07:07:59;;;;;;;0.57;0.57;;;22.80;99.90;;;;;;5058932;28;20569;-82
2021/06/29 07:10:25;;;;;;;0.53;0.40;;;23.00;99.90;;;;;;5082807;28;20191;-81
2021/06/29 07:12:51;;;;;;;0.50;0.50;;;23.30;99.90;;;;;;5053611;28;20182;-81
2021/06/29 07:15:16;;;;;;;0.30;0.30;;;23.60;99.90;;;;;;5057430;28;20313;-81
2021/06/29 07:17:42;;;;;;;0.67;0.67;;;23.80;99.90;;;;;;5066059;28;20578;-81
2021/06/29 07:20:08;;;;;;;2.30;0.50;;;23.80;99.90;;;;;;5048035;28;20816;-82
2021/06/29 07:22:36;;;;;;;0.37;0.37;;;23.90;99.90;;;;;;5055540;28;20214;-81
2021/06/29 07:25:04;;;;;;;0.70;0.50;;;24.10;99.90;;;;;;5050204;28;20205;-84
2021/06/29 07:27:30;;;;;;;0.20;0.20;;;24.20;99.90;;;;;;5064324;28;20174;-82
2021/06/29 07:29:56;;;;;;;0.50;0.50;;;24.40;99.90;;;;;;5065879;28;20184;-83
2021/06/29 07:32:22;;;;;;;0.30;0.30;;;24.60;99.90;;;;;;5068456;28;20224;-82
2021/06/29 07:34:47;;;;;;;0.50;0.50;;;24.80;99.90;;;;;;5067822;28;20707;-83
2021/06/29 07:37:13;;;;;;;0.30;0.30;;;25.10;99.90;;;;;;5066622;28;20195;-82
2021/06/29 07:39:39;;;;;;;0.40;0.40;;;25.10;99.90;;;;;;5069077;28;20549;-82
2021/06/29 07:42:05;;;;;;;0.30;0.30;;;25.10;99.90;;;;;;5055843;28;20192;-83
2021/06/29 07:44:30;;;;;;;1.03;0.83;;;25.20;99.90;;;;;;5070054;28;20197;-83
2021/06/29 07:46:57;;;;;;;0.37;0.37;;;25.00;99.90;;;;;;5052515;28;20618;-82
2021/06/29 07:49:24;;;;;;;0.43;0.43;;;25.10;99.90;;;;;;5065786;28;20188;-83
2021/06/29 07:51:50;;;;;;;2.10;0.50;;;25.30;99.90;;;;;;5044987;28;20621;-82
2021/06/29 07:54:17;;;;;;;0.87;0.73;;;25.50;99.90;;;;;;5050740;28;20213;-83
2021/06/29 07:56:43;;;;;;;1.57;0.73;;;25.20;99.90;;;;;;5052973;28;20405;-81
2021/06/29 07:59:09;;;;;;;0.30;0.30;;;25.20;99.90;;;;;;5065855;28;20728;-83
2021/06/29 08:01:35;;;;;;;0.33;0.33;;;25.10;99.90;;;;;;5050731;28;20177;-82
2021/06/29 08:04:00;;;;;;;0.60;0.60;;;25.20;99.90;;;;;;5053382;28;20208;-82
2021/06/29 08:06:26;;;;;;;0.20;0.20;;;25.40;99.90;;;;;;5070753;28;20573;-81
2021/06/29 08:08:51;;;;;;;0.50;0.40;;;25.70;99.90;;;;;;5051480;28;20181;-81
2021/06/29 08:11:18;;;;;;;1.30;0.70;;;25.90;99.90;;;;;;5066976;28;20187;-81
2021/06/29 08:13:43;;;;;;;0.57;0.57;;;25.80;99.90;;;;;;5066690;28;20701;-81
2021/06/29 08:16:10;;;;;;;0.97;0.67;;;25.90;99.90;;;;;;5043138;28;20258;-82
2021/06/29 08:18:37;;;;;;;1.03;0.90;;;25.70;99.90;;;;;;5066631;28;20188;-81
2021/06/29 08:21:03;;;;;;;0.63;0.63;;;25.60;99.90;;;;;;5072609;28;20189;-81
2021/06/29 08:23:29;;;;;;;0.57;0.43;;;25.80;99.90;;;;;;5056023;28;20223;-82
2021/06/29 08:25:55;;;;;;;0.50;0.50;;;25.70;99.90;;;;;;5072356;28;20213;-81
2021/06/29 08:28:20;;;;;;;0.50;0.50;;;25.70;99.90;;;;;;5057016;28;20185;-83
2021/06/29 08:30:46;;;;;;;0.23;0.23;;;26.00;99.90;;;;;;5073118;28;20185;-82
2021/06/29 08:33:12;;;;;;;0.90;0.53;;;26.00;99.90;;;;;;5066216;28;20625;-81
2021/06/29 08:35:40;;;;;;;0.40;0.40;;;26.00;99.90;;;;;;5054325;28;20196;-81
2021/06/29 08:38:06;;;;;;;0.30;0.30;;;26.10;99.90;;;;;;5053008;28;20226;-81
2021/06/29 08:40:37;;;;;;;0.37;0.37;;;26.20;99.90;;;;;;5056821;28;20183;-81
2021/06/29 08:43:04;;;;;;;0.40;0.40;;;26.20;99.90;;;;;;5058155;28;20208;-82
2021/06/29 08:45:31;;;;;;;0.50;0.50;;;26.20;99.90;;;;;;5052465;28;20262;-82
2021/06/29 08:47:57;;;;;;;0.53;0.50;;;26.20;99.90;;;;;;5073069;28;20220;-83
2021/06/29 08:50:24;;;;;;;0.40;0.40;;;26.10;99.90;;;;;;5054501;28;20653;-82
2021/06/29 08:52:50;;;;;;;0.23;0.23;;;26.20;99.90;;;;;;5070622;28;20279;-83
2021/06/29 08:55:16;;;;;;;0.60;0.60;;;26.40;99.90;;;;;;5055617;28;20295;-86
2021/06/29 08:57:42;;;;;;;1.07;0.53;;;26.60;99.90;;;;;;5053210;28;20599;-83
2021/06/29 09:00:11;;;;;;;0.77;0.77;;;26.60;99.90;;;;;;5070555;28;20181;-83
2021/06/29 09:02:39;;;;;;;0.20;0.20;;;26.70;99.90;;;;;;5094530;28;20185;-83
2021/06/29 09:05:20;;;;;;;0.37;0.37;;;26.60;99.90;;;;;;5074918;28;20184;-80
2021/06/29 09:07:48;;;;;;;0.70;0.70;;;26.50;99.90;;;;;;5092511;28;20184;-82
2021/06/29 09:10:14;;;;;;;0.93;0.33;;;26.60;99.90;;;;;;5074730;28;20173;-81
2021/06/29 09:12:44;;;;;;;0.57;0.57;;;26.60;99.90;;;;;;5091344;28;20177;-82
2021/06/29 09:15:26;;;;;;;0.43;0.27;;;26.70;99.90;;;;;;5058445;28;20169;-82
2021/06/29 09:17:53;;;;;;;0.77;0.77;;;27.00;99.90;;;;;;5057480;28;20177;-82
2021/06/29 09:20:29;;;;;;;0.57;0.50;;;27.40;99.90;;;;;;5057011;28;20774;-82
2021/06/29 09:23:11;;;;;;;0.50;0.50;;;27.70;99.90;;;;;;5072292;28;20591;-81
2021/06/29 09:25:38;;;;;;;0.33;0.30;;;28.00;99.90;;;;;;5056497;28;20213;-81
2021/06/29 09:28:04;;;;;;;0.30;0.30;;;28.00;99.90;;;;;;5074391;28;20268;-82
2021/06/29 09:30:33;;;;;;;0.83;0.77;;;28.10;99.90;;;;;;5055729;28;20181;-82
2021/06/29 09:33:05;;;;;;;0.40;0.40;;;28.20;99.90;;;;;;5052565;28;20204;-82
2021/06/29 09:35:31;;;;;;;0.20;0.20;;;28.40;99.90;;;;;;5070313;28;20185;-82
2021/06/29 09:37:57;;;;;;;0.43;0.43;;;28.30;99.90;;;;;;5055640;28;20196;-82
2021/06/29 09:40:26;;;;;;;0.47;0.43;;;28.40;99.90;;;;;;5072408;28;20675;-82
2021/06/29 09:42:53;;;;;;;0.77;0.77;;;28.40;99.90;;;;;;5073996;28;20185;-82
2021/06/29 09:45:34;;;;;;;0.20;0.20;;;28.30;99.90;;;;;;5048901;28;20212;-82
2021/06/29 09:48:01;;;;;;;0.30;0.30;;;28.30;99.90;;;;;;5082856;28;20177;-82
2021/06/29 09:50:38;;;;;;;0.40;0.40;;;28.20;99.90;;;;;;5053938;28;20269;-82
2021/06/29 09:53:41;;;;;;;0.20;0.20;;;28.10;99.90;;;;;;5062440;28;20308;-82
2021/06/29 09:56:16;;;;;;;0.30;0.30;;;28.20;99.90;;;;;;5030256;28;20677;-82
2021/06/29 09:58:44;;;;;;;0.30;0.30;;;28.20;99.90;;;;;;5060025;28;20169;-82
2021/06/29 10:01:15;;;;;;;0.20;0.20;;;28.10;99.90;;;;;;5055565;28;20188;-81
2021/06/29 10:03:41;;;;;;;0.37;0.37;;;28.30;99.90;;;;;;5055489;28;20289;-82
2021/06/29 10:06:16;;;;;;;0.57;0.57;;;26.80;99.90;;;;;;5072174;28;20568;-82
2021/06/29 10:08:47;;;;;;;0.83;0.57;;;26.80;99.90;;;;;;5073423;28;20172;-82
2021/06/29 10:11:24;;;;;;;0.60;0.60;;;26.90;99.90;;;;;;5055144;28;20200;-82
2021/06/29 10:13:54;;;;;;;0.30;0.30;;;27.40;99.90;;;;;;5073417;28;20200;-82
2021/06/29 10:16:23;;;;;;;0.50;0.50;;;27.80;99.90;;;;;;5071898;28;20185;-83
2021/06/29 10:18:54;;;;;;;0.23;0.23;;;28.00;99.90;;;;;;5055289;28;20177;-82
2021/06/29 10:21:22;;;;;;;0.40;0.40;;;27.70;99.90;;;;;;5071393;28;20593;-82
2021/06/29 10:23:59;;;;;;;0.37;0.37;;;28.10;99.90;;;;;;5055362;28;20637;-82
2021/06/29 10:26:27;;;;;;;0.60;0.50;;;28.20;99.90;;;;;;5054973;28;20212;-81
2021/06/29 10:28:53;;;;;;;0.17;0.17;;;28.40;99.90;;;;;;5055022;28;20181;-82
2021/06/29 10:31:28;;;;;;;0.30;0.30;;;28.60;99.90;;;;;;5054753;28;20205;-82
2021/06/29 10:33:56;;;;;;;0.30;0.30;;;28.20;99.90;;;;;;5080433;28;20279;-82
2021/06/29 10:36:23;;;;;;;0.37;0.37;;;27.60;99.90;;;;;;5072597;28;20216;-83
2021/06/29 10:38:50;;;;;;;0.30;0.30;;;27.10;99.90;;;;;;5060982;28;20847;-82
2021/06/29 10:41:16;;;;;;;0.77;0.43;;;27.10;99.90;;;;;;5076068;28;20180;-82
2021/06/29 10:43:43;;;;;;;0.30;0.30;;;26.60;99.90;;;;;;5071688;28;20200;-82
2021/06/29 10:46:27;;;;;;;3.03;0.60;;;26.60;99.90;;;;;;5061806;28;20196;-82
2021/06/29 10:48:53;;;;;;;0.97;0.30;;;27.40;99.90;;;;;;5072354;28;20284;-80
2021/06/29 10:51:36;;;;;;;0.33;0.30;;;27.70;99.90;;;;;;5073010;28;20188;-82
2021/06/29 10:54:02;;;;;;;0.43;0.43;;;27.90;99.90;;;;;;5048936;28;20217;-82
2021/06/29 10:56:55;;;;;;;0.77;0.30;;;28.30;99.90;;;;;;5049643;28;20241;-82
2021/06/29 10:59:31;;;;;;;0.40;0.40;;;28.70;99.90;;;;;;5054819;28;20189;-82
2021/06/29 11:01:57;;;;;;;0.30;0.30;;;28.60;99.90;;;;;;5072700;28;20184;-82
2021/06/29 11:04:54;;;;;;;0.30;0.30;;;28.40;99.90;;;;;;5054497;28;20284;-81
2021/06/29 11:07:39;;;;;;;0.30;0.30;;;28.70;99.90;;;;;;5071717;28;20567;-82
2021/06/29 11:10:06;;;;;;;0.40;0.40;;;28.20;99.90;;;;;;5054087;28;20286;-82
2021/06/29 11:12:34;;;;;;;1.38;0.60;;;28.40;99.90;;;;;;5072293;28;20181;-82
2021/06/29 11:15:06;;;;;;;0.67;0.67;;;28.30;99.90;;;;;;5064972;28;20232;-82
2021/06/29 11:17:58;;;;;;;5.00;0.60;;;28.40;99.90;;;;;;5064602;28;20177;-82
2021/06/29 11:20:45;;;;;;;1.40;1.00;;;28.30;99.90;;;;;;5072181;28;20173;-82
2021/06/29 11:23:23;;;;;;;0.60;0.60;;;28.10;99.90;;;;;;5053951;28;20361;-82
2021/06/29 11:25:53;;;;;;;0.30;0.30;;;28.60;99.90;;;;;;5068230;28;20235;-82
2021/06/29 11:28:33;;;;;;;0.43;0.30;;;29.10;99.90;;;;;;5071852;28;20181;-82
2021/06/29 11:31:10;;;;;;;0.60;0.60;;;29.10;99.90;;;;;;5054011;28;20184;-82
2021/06/29 11:33:50;;;;;;;0.60;0.60;;;29.30;99.90;;;;;;5067477;28;20193;-82
2021/06/29 11:36:32;;;;;;;0.40;0.40;;;29.20;99.90;;;;;;5053527;28;20185;-82
2021/06/29 11:39:16;;;;;;;0.40;0.40;;;29.50;99.90;;;;;;5072459;28;20180;-82
2021/06/29 11:42:11;;;;;;;0.77;0.57;;;29.90;99.90;;;;;;5064419;28;20518;-82
2021/06/29 11:44:43;;;;;;;0.30;0.30;;;29.90;99.90;;;;;;5045926;28;20207;-81
2021/06/29 11:47:13;;;;;;;0.77;0.60;;;30.20;99.90;;;;;;5068158;28;20209;-82
2021/06/29 11:49:51;;;;;;;0.43;0.43;;;29.30;99.90;;;;;;5054421;28;20177;-81
2021/06/29 11:52:20;;;;;;;0.43;0.43;;;28.90;99.90;;;;;;5071611;28;20252;-82
2021/06/29 11:54:58;;;;;;;0.70;0.50;;;29.10;99.90;;;;;;5071324;28;20204;-83
2021/06/29 11:57:35;;;;;;;0.30;0.30;;;29.50;99.90;;;;;;5069362;28;20649;-82
2021/06/29 12:00:24;;;;;;;0.35;0.35;;;30.00;99.90;;;;;;5070693;28;20181;-82
2021/06/29 12:02:53;;;;;;;0.38;0.38;;;30.50;99.90;;;;;;5053062;28;20185;-82
2021/06/29 12:05:22;;;;;;;0.40;0.40;;;30.50;99.90;;;;;;5060851;28;20204;-81
2021/06/29 12:08:00;;;;;;;0.88;0.70;;;30.60;99.90;;;;;;5087285;28;20214;-82
2021/06/29 12:10:27;;;;;;;0.30;0.30;;;30.60;99.90;;;;;;5073714;28;20180;-82
2021/06/29 12:12:58;;;;;;;0.50;0.50;;;31.00;99.90;;;;;;5073798;28;20184;-83
2021/06/29 12:15:36;;;;;;;0.38;0.38;;;30.90;99.90;;;;;;5067991;28;20192;-82
2021/06/29 12:18:07;;;;;;;0.50;0.50;;;31.00;99.90;;;;;;5071603;28;20184;-82
2021/06/29 12:20:42;;;;;;;0.52;0.52;;;31.20;99.90;;;;;;5053372;28;20185;-82
2021/06/29 12:23:11;;;;;;;0.47;0.40;;;30.80;99.90;;;;;;5053600;28;20231;-83
2021/06/29 12:25:39;;;;;;;0.30;0.30;;;31.20;99.90;;;;;;5071369;28;20211;-83
2021/06/29 12:28:26;;;;;;;0.47;0.40;;;31.40;99.90;;;;;;5069768;28;20177;-83
2021/06/29 12:30:57;;;;;;;0.50;0.50;;;31.80;99.90;;;;;;5069527;28;20184;-82
2021/06/29 12:33:37;;;;;;;0.60;0.60;;;31.50;99.90;;;;;;5059397;28;20604;-82
2021/06/29 12:36:05;;;;;;;0.43;0.43;;;31.50;99.90;;;;;;5041395;28;20184;-83
2021/06/29 12:38:54;;;;;;;0.70;0.43;;;31.60;99.90;;;;;;5052354;28;20181;-82
2021/06/29 12:41:24;;;;;;;0.45;0.45;;;31.20;99.90;;;;;;5052819;28;20208;-83
2021/06/29 12:43:55;;;;;;;0.52;0.52;;;30.70;99.90;;;;;;5051452;28;20336;-82
2021/06/29 12:46:30;;;;;;;0.65;0.65;;;30.30;99.90;;;;;;5053164;28;20212;-82
2021/06/29 12:49:09;;;;;;;0.50;0.45;;;30.10;99.90;;;;;;5060784;28;20173;-82
2021/06/29 12:51:40;;;;;;;2.00;0.95;;;29.60;99.90;;;;;;5049032;28;20173;-82
2021/06/29 12:54:11;;;;;;;1.30;0.50;;;29.30;99.90;;;;;;5064988;28;20225;-82